createdAt,value
2022-11-20T00:01:44.238Z,12.20
2022-11-20T00:05:12.173Z,12.80
2022-11-20T00:08:39.422Z,12.80
2022-11-20T00:12:06.760Z,13.10
2022-11-20T00:15:34.314Z,13.60
2022-11-20T00:19:01.105Z,11.90
2022-11-20T00:22:27.822Z,12.00
2022-11-20T00:25:54.802Z,13.30
2022-11-20T00:29:21.681Z,12.20
2022-11-20T00:32:48.737Z,11.60
2022-11-20T00:36:17.961Z,11.70
2022-11-20T00:39:44.624Z,12.30
2022-11-20T00:43:11.297Z,12.50
2022-11-20T00:46:37.991Z,12.30
2022-11-20T00:50:05.002Z,10.80
2022-11-20T00:53:31.914Z,10.80
2022-11-20T00:56:58.878Z,13.00
2022-11-20T01:00:25.899Z,11.60
2022-11-20T01:03:54.507Z,12.00
2022-11-20T01:07:21.419Z,13.10
2022-11-20T01:10:48.305Z,12.60
2022-11-20T01:14:17.855Z,11.40
2022-11-20T01:21:11.883Z,11.10
2022-11-20T01:24:38.476Z,11.70
2022-11-20T01:28:05.126Z,12.20
2022-11-20T01:31:34.834Z,12.60
2022-11-20T01:35:01.553Z,12.50
2022-11-20T01:38:28.140Z,13.90
2022-11-20T01:42:13.838Z,13.00
2022-11-20T01:46:16.909Z,12.80
2022-11-20T01:49:48.682Z,12.30
2022-11-20T01:53:20.352Z,11.60
2022-11-20T01:56:50.339Z,12.70
2022-11-20T02:00:20.790Z,13.20
2022-11-20T02:03:48.585Z,12.50
2022-11-20T02:07:15.759Z,13.30
2022-11-20T02:10:42.452Z,13.90
2022-11-20T02:14:09.853Z,12.60
2022-11-20T02:17:36.737Z,13.00
2022-11-20T02:21:08.636Z,14.30
2022-11-20T02:24:35.620Z,14.90
2022-11-20T02:28:02.329Z,14.80
2022-11-20T02:31:29.136Z,15.60
2022-11-20T02:34:55.915Z,14.00
2022-11-20T02:38:22.951Z,15.20
2022-11-20T02:41:49.901Z,14.20
2022-11-20T02:45:16.617Z,14.70
2022-11-20T02:48:43.460Z,17.50
2022-11-20T02:52:10.073Z,16.10
2022-11-20T02:55:37.262Z,16.60
2022-11-20T02:59:04.180Z,16.40
2022-11-20T03:02:33.405Z,16.40
2022-11-20T03:06:02.033Z,16.00
2022-11-20T03:09:28.696Z,15.90
2022-11-20T03:12:58.184Z,15.40
2022-11-20T03:19:51.691Z,15.10
2022-11-20T03:23:18.450Z,15.20
2022-11-20T03:26:45.351Z,15.20
2022-11-20T03:30:13.691Z,15.10
2022-11-20T03:33:40.933Z,15.10
2022-11-20T03:37:08.091Z,17.50
2022-11-20T03:40:35.613Z,15.80
2022-11-20T03:44:05.219Z,15.70
2022-11-20T03:47:32.006Z,15.60
2022-11-20T03:51:10.806Z,14.90
2022-11-20T03:54:37.487Z,15.60
2022-11-20T03:58:04.103Z,15.00
2022-11-20T04:01:33.621Z,15.30
2022-11-20T04:05:00.792Z,15.90
2022-11-20T04:08:27.729Z,15.40
2022-11-20T04:11:54.636Z,16.20
2022-11-20T04:15:21.279Z,16.90
2022-11-20T04:18:48.197Z,17.10
2022-11-20T04:22:15.176Z,18.20
2022-11-20T04:25:42.157Z,18.70
2022-11-20T04:29:12.180Z,15.80
2022-11-20T04:32:38.844Z,17.40
2022-11-20T04:36:08.067Z,17.60
2022-11-20T04:39:34.856Z,16.60
2022-11-20T04:43:01.886Z,16.50
2022-11-20T04:46:30.156Z,17.10
2022-11-20T04:49:57.060Z,15.30
2022-11-20T04:53:25.148Z,15.50
2022-11-20T04:56:52.537Z,15.00
2022-11-20T05:00:20.701Z,13.60
2022-11-20T05:03:48.029Z,13.70
2022-11-20T05:19:52.949Z,14.20
2022-11-20T05:23:20.043Z,13.40
2022-11-20T05:26:47.140Z,12.70
2022-11-20T05:30:17.127Z,13.80
2022-11-20T05:33:45.931Z,13.70
2022-11-20T05:37:13.146Z,11.50
2022-11-20T05:40:40.557Z,15.60
2022-11-20T05:44:07.992Z,17.70
2022-11-20T05:47:36.859Z,18.00
2022-11-20T05:51:04.978Z,17.20
2022-11-20T05:54:32.343Z,18.10
2022-11-20T05:57:59.331Z,19.60
2022-11-20T06:01:27.917Z,18.90
2022-11-20T06:04:54.750Z,18.50
2022-11-20T06:08:22.032Z,18.50
2022-11-20T06:11:49.389Z,18.70
2022-11-20T06:15:16.737Z,19.10
2022-11-20T06:18:44.098Z,19.20
2022-11-20T06:22:11.334Z,18.60
2022-11-20T06:25:41.410Z,19.30
2022-11-20T06:29:08.453Z,17.80
2022-11-20T06:32:36.214Z,18.50
2022-11-20T06:36:10.177Z,19.10
2022-11-20T06:39:38.236Z,20.40
2022-11-20T06:43:04.951Z,21.00
2022-11-20T06:46:31.630Z,20.00
2022-11-20T06:49:58.674Z,22.30
2022-11-20T06:53:26.233Z,20.50
2022-11-20T06:56:53.176Z,20.50
2022-11-20T07:00:20.537Z,20.70
2022-11-20T07:03:54.167Z,20.90
2022-11-20T07:07:21.371Z,20.90
2022-11-20T07:10:48.537Z,20.80
2022-11-20T07:14:15.270Z,23.00
2022-11-20T07:17:42.275Z,20.70
2022-11-20T07:21:11.515Z,23.20
2022-11-20T07:24:40.762Z,21.30
2022-11-20T07:28:12.126Z,22.20
2022-11-20T07:31:38.796Z,23.20
2022-11-20T07:35:06.213Z,22.30
2022-11-20T07:38:33.394Z,22.40
2022-11-20T07:42:00.493Z,25.20
2022-11-20T07:45:28.029Z,24.70
2022-11-20T07:48:54.641Z,25.00
2022-11-20T07:52:21.878Z,27.10
2022-11-20T07:55:48.824Z,22.90
2022-11-20T07:59:16.598Z,23.30
2022-11-20T08:02:43.997Z,22.90
2022-11-20T08:06:11.517Z,23.90
2022-11-20T08:09:38.161Z,22.10
2022-11-20T08:13:23.284Z,21.40
2022-11-20T08:16:51.543Z,23.60
2022-11-20T08:20:18.265Z,23.30
2022-11-20T08:23:45.005Z,22.60
2022-11-20T08:27:12.051Z,21.70
2022-11-20T08:30:39.763Z,26.40
2022-11-20T08:34:09.431Z,33.00
2022-11-20T08:37:38.575Z,30.00
2022-11-20T08:41:24.731Z,30.60
2022-11-20T08:44:51.337Z,29.50
2022-11-20T08:48:18.205Z,25.00
2022-11-20T08:51:46.142Z,25.20
2022-11-20T08:55:14.574Z,24.40
2022-11-20T08:59:09.892Z,27.20
2022-11-20T09:02:28.696Z,23.00
2022-11-20T09:06:01.384Z,23.90
2022-11-20T09:09:28.131Z,23.70
2022-11-20T09:12:56.296Z,25.50
2022-11-20T09:16:23.196Z,24.50
2022-11-20T09:19:50.006Z,25.90
2022-11-20T09:23:17.010Z,26.30
2022-11-20T09:26:43.642Z,24.60
2022-11-20T09:30:12.673Z,27.60
2022-11-20T09:33:39.904Z,24.10
2022-11-20T09:37:07.883Z,21.70
2022-11-20T09:40:36.390Z,23.30
2022-11-20T09:44:10.192Z,23.40
2022-11-20T09:47:51.675Z,22.40
2022-11-20T09:51:30.336Z,22.70
2022-11-20T09:54:58.332Z,23.30
2022-11-20T09:58:33.309Z,21.80
2022-11-20T10:02:01.393Z,22.00
2022-11-20T10:05:32.224Z,23.10
2022-11-20T10:09:16.261Z,22.90
2022-11-20T10:12:59.419Z,22.00
2022-11-20T10:16:39.527Z,24.30
2022-11-20T10:20:23.229Z,24.80
2022-11-20T10:24:11.343Z,23.10
2022-11-20T10:28:08.989Z,23.70
2022-11-20T10:31:39.043Z,23.20
2022-11-20T10:35:16.203Z,23.40
2022-11-20T10:38:46.909Z,24.00
2022-11-20T10:42:18.336Z,22.10
2022-11-20T10:46:01.028Z,22.90
2022-11-20T10:49:27.704Z,21.00
2022-11-20T10:53:06.656Z,21.90
2022-11-20T10:56:42.382Z,20.60
2022-11-20T11:00:15.256Z,21.80
2022-11-20T11:03:44.440Z,21.20
2022-11-20T11:07:15.637Z,22.00
2022-11-20T11:10:48.283Z,21.10
2022-11-20T11:14:16.837Z,22.30
2022-11-20T11:17:49.761Z,23.40
2022-11-20T11:21:23.276Z,22.80
2022-11-20T11:24:56.417Z,19.40
2022-11-20T11:28:28.384Z,19.90
2022-11-20T11:32:04.581Z,20.40
2022-11-20T11:35:31.938Z,20.90
2022-11-20T11:38:59.213Z,20.70
2022-11-20T11:42:26.041Z,22.70
2022-11-20T11:45:58.027Z,20.60
2022-11-20T11:49:25.948Z,23.10
2022-11-20T11:53:00.466Z,22.10
2022-11-20T11:56:29.502Z,25.10
2022-11-20T12:00:06.908Z,24.30
2022-11-20T12:03:39.899Z,24.50
2022-11-20T12:07:44.220Z,23.10
2022-11-20T12:11:06.160Z,23.20
2022-11-20T12:14:38.848Z,23.10
2022-11-20T12:18:22.734Z,21.70
2022-11-20T12:22:01.978Z,23.70
2022-11-20T12:25:34.379Z,24.10
2022-11-20T12:29:13.908Z,23.20
2022-11-20T12:33:18.397Z,21.80
2022-11-20T12:36:52.104Z,22.70
2022-11-20T12:40:37.686Z,20.70
2022-11-20T12:44:35.753Z,22.30
2022-11-20T12:48:30.283Z,21.40
2022-11-20T12:52:09.726Z,22.40
2022-11-20T12:55:44.783Z,22.30
2022-11-20T12:59:25.571Z,23.50
2022-11-20T13:03:23.586Z,24.80
2022-11-20T13:06:51.290Z,26.10
2022-11-20T13:10:25.680Z,25.40
2022-11-20T13:14:08.698Z,23.30
2022-11-20T13:17:39.154Z,23.70
2022-11-20T13:21:17.512Z,26.20
2022-11-20T13:24:53.865Z,23.20
2022-11-20T13:28:32.437Z,22.70
2022-11-20T13:32:16.133Z,21.70
2022-11-20T13:35:45.376Z,22.00
2022-11-20T13:39:13.370Z,22.20
2022-11-20T13:42:45.595Z,21.40
2022-11-20T13:46:13.030Z,21.80
2022-11-20T13:49:45.358Z,24.40
2022-11-20T13:53:27.786Z,25.10
2022-11-20T13:57:06.917Z,23.90
2022-11-20T14:00:33.904Z,23.50
2022-11-20T14:04:08.580Z,25.80
2022-11-20T14:07:42.837Z,23.20
2022-11-20T14:11:17.959Z,25.50
2022-11-20T14:14:52.428Z,25.50
2022-11-20T14:18:23.963Z,27.50
2022-11-20T14:21:53.315Z,29.40
2022-11-20T14:25:28.017Z,36.40
2022-11-20T14:28:55.733Z,44.10
2022-11-20T14:32:26.097Z,53.30
2022-11-20T14:35:55.201Z,53.50
2022-11-20T14:39:32.893Z,39.80
2022-11-20T14:43:00.953Z,37.50
2022-11-20T14:46:29.805Z,32.00
2022-11-20T14:49:57.992Z,28.10
2022-11-20T14:53:27.621Z,27.30
2022-11-20T14:57:00.689Z,25.50
2022-11-20T15:00:28.903Z,26.70
2022-11-20T15:04:03.704Z,26.70
2022-11-20T15:07:32.206Z,25.20
2022-11-20T15:10:59.377Z,27.60
2022-11-20T15:14:27.636Z,27.50
2022-11-20T15:17:55.076Z,32.50
2022-11-20T15:21:23.200Z,36.40
2022-11-20T15:24:49.852Z,34.30
2022-11-20T15:28:22.916Z,33.00
2022-11-20T15:31:51.939Z,28.50
2022-11-20T15:35:19.598Z,30.70
2022-11-20T15:38:46.381Z,30.90
2022-11-20T15:42:13.124Z,32.40
2022-11-20T15:45:43.448Z,36.60
2022-11-20T15:49:13.121Z,35.40
2022-11-20T15:52:42.252Z,40.70
2022-11-20T15:56:12.230Z,40.00
2022-11-20T15:59:40.884Z,42.40
2022-11-20T16:03:07.821Z,40.10
2022-11-20T16:06:34.844Z,36.00
2022-11-20T16:10:01.477Z,38.30
2022-11-20T16:13:45.824Z,36.40
2022-11-20T16:17:12.535Z,36.50
2022-11-20T16:20:39.602Z,33.50
2022-11-20T16:24:09.279Z,33.10
2022-11-20T16:27:36.403Z,33.40
2022-11-20T16:31:11.984Z,40.30
2022-11-20T16:34:38.638Z,42.60
2022-11-20T16:38:05.480Z,47.50
2022-11-20T16:41:34.761Z,46.70
2022-11-20T16:45:01.470Z,48.20
2022-11-20T16:48:28.305Z,46.20
2022-11-20T16:51:55.036Z,43.40
2022-11-20T16:55:21.982Z,38.40
2022-11-20T16:58:51.021Z,38.60
2022-11-20T17:02:18.364Z,25.40
2022-11-20T17:05:45.249Z,34.00
2022-11-20T17:09:13.002Z,30.80
2022-11-20T17:12:39.679Z,31.40
2022-11-20T17:16:08.533Z,30.50
2022-11-20T17:19:35.599Z,27.90
2022-11-20T17:23:02.306Z,29.00
2022-11-20T17:26:29.335Z,28.20
2022-11-20T17:29:57.722Z,28.50
2022-11-20T17:33:24.740Z,30.30
2022-11-20T17:36:51.441Z,31.40
2022-11-20T17:40:20.921Z,33.90
2022-11-20T17:43:54.147Z,34.70
2022-11-20T17:47:21.122Z,35.60
2022-11-20T17:50:48.211Z,33.50
2022-11-20T17:54:15.156Z,35.60
2022-11-20T17:57:56.475Z,34.50
2022-11-20T18:01:23.828Z,32.90
2022-11-20T18:04:51.164Z,32.90
2022-11-20T18:08:18.356Z,29.50
2022-11-20T18:11:45.721Z,31.60
2022-11-20T18:15:12.819Z,30.40
2022-11-20T18:18:39.524Z,30.10
2022-11-20T18:22:07.908Z,29.90
2022-11-20T18:25:34.707Z,34.10
2022-11-20T18:29:07.117Z,36.40
2022-11-20T18:32:35.476Z,35.90
2022-11-20T18:36:12.053Z,36.60
2022-11-20T18:39:38.774Z,38.20
2022-11-20T18:43:24.074Z,38.20
2022-11-20T18:46:51.374Z,38.70
2022-11-20T18:50:19.192Z,42.30
2022-11-20T18:53:47.516Z,45.20
2022-11-20T18:57:15.681Z,49.90
2022-11-20T19:00:42.645Z,53.30
2022-11-20T19:04:12.366Z,56.00
2022-11-20T19:07:39.073Z,53.50
2022-11-20T19:11:10.522Z,50.10
2022-11-20T19:14:37.767Z,50.50
2022-11-20T19:18:04.433Z,46.00
2022-11-20T19:21:32.432Z,43.20
2022-11-20T19:24:59.281Z,45.40
2022-11-20T19:28:26.543Z,40.50
2022-11-20T19:31:53.476Z,42.80
2022-11-20T19:35:20.920Z,40.50
2022-11-20T19:38:50.729Z,39.80
2022-11-20T19:45:42.760Z,35.60
2022-11-20T19:49:12.097Z,37.40
2022-11-20T19:56:04.282Z,40.20
2022-11-20T19:59:31.322Z,39.90
2022-11-20T20:02:58.032Z,38.20
2022-11-20T20:06:26.846Z,32.50
2022-11-20T20:09:53.820Z,39.60
2022-11-20T20:13:20.474Z,43.00
2022-11-20T20:25:58.114Z,37.70
2022-11-20T20:29:25.666Z,36.20
2022-11-20T20:32:56.242Z,35.70
2022-11-20T20:36:25.267Z,33.40
2022-11-20T20:39:52.009Z,35.90
2022-11-20T20:43:18.949Z,38.10
2022-11-20T20:46:45.680Z,36.00
2022-11-20T20:50:14.190Z,34.10
2022-11-20T20:53:41.151Z,32.20
2022-11-20T20:57:07.947Z,32.70
2022-11-20T21:00:34.868Z,31.40
2022-11-20T21:04:01.681Z,30.80
2022-11-20T21:07:28.739Z,31.00
2022-11-20T21:10:57.505Z,29.40
2022-11-20T21:14:24.572Z,32.90
2022-11-20T21:17:51.801Z,29.20
2022-11-20T21:21:37.209Z,31.90
2022-11-20T21:25:04.301Z,29.00
2022-11-20T21:28:32.238Z,27.10
2022-11-20T21:31:59.798Z,27.60
2022-11-20T21:35:26.498Z,28.80
2022-11-20T21:38:55.111Z,29.10
2022-11-20T21:42:22.260Z,26.60
2022-11-20T21:45:48.890Z,27.60
2022-11-20T21:49:17.766Z,26.70
2022-11-20T21:52:44.454Z,25.00
2022-11-20T21:56:16.380Z,27.80
2022-11-20T21:59:45.698Z,28.10
2022-11-20T22:03:12.739Z,26.50
2022-11-20T22:06:39.593Z,28.00
2022-11-20T22:10:08.212Z,26.70
2022-11-20T22:13:52.963Z,25.50
2022-11-20T22:17:40.848Z,26.50
2022-11-20T22:21:08.870Z,25.10
2022-11-20T22:24:36.006Z,25.60
2022-11-20T22:28:03.390Z,25.80
2022-11-20T22:31:31.593Z,26.90
2022-11-20T22:34:58.725Z,25.80
2022-11-20T22:38:29.647Z,24.80
2022-11-20T22:41:56.676Z,25.80
2022-11-20T22:45:23.854Z,25.00
2022-11-20T22:48:54.690Z,23.00
2022-11-20T22:52:22.281Z,24.60
2022-11-20T22:55:53.219Z,25.80
2022-11-20T22:59:20.305Z,22.00
2022-11-20T23:02:48.137Z,23.10
2022-11-20T23:06:16.215Z,24.10
2022-11-20T23:09:43.200Z,24.00
2022-11-20T23:13:09.909Z,24.10
2022-11-20T23:16:37.148Z,26.30
2022-11-20T23:20:03.947Z,24.40
2022-11-20T23:23:31.341Z,25.10
2022-11-20T23:26:58.509Z,23.50
2022-11-20T23:30:25.711Z,24.30
2022-11-20T23:33:53.296Z,24.10
2022-11-20T23:37:20.140Z,25.00
2022-11-20T23:40:50.885Z,25.20
2022-11-20T23:44:17.553Z,22.40
2022-11-20T23:47:44.340Z,24.90
2022-11-20T23:51:10.974Z,22.90
2022-11-20T23:54:37.624Z,25.00
2022-11-20T23:58:05.539Z,24.50
